sensor_id;sensor_type;location;lat;lon;timestamp;temperature;humidity
44377;DHT22;30093;0.000;0.000;2022-09-25T00:00:29;8.60;1.00
44377;DHT22;30093;0.000;0.000;2022-09-25T00:04:18;8.60;1.00
44377;DHT22;30093;0.000;0.000;2022-09-25T00:08:08;8.60;19.30
44377;DHT22;30093;0.000;0.000;2022-09-25T00:11:56;8.60;99.90
44377;DHT22;30093;0.000;0.000;2022-09-25T00:15:46;8.70;79.30
44377;DHT22;30093;0.000;0.000;2022-09-25T00:19:34;8.70;1.00
44377;DHT22;30093;0.000;0.000;2022-09-25T00:23:38;8.70;93.20
44377;DHT22;30093;0.000;0.000;2022-09-25T00:27:28;8.80;35.20
44377;DHT22;30093;0.000;0.000;2022-09-25T00:31:21;8.60;99.90
44377;DHT22;30093;0.000;0.000;2022-09-25T00:35:11;8.60;99.90
44377;DHT22;30093;0.000;0.000;2022-09-25T00:39:00;8.80;99.90
44377;DHT22;30093;0.000;0.000;2022-09-25T00:42:49;8.80;99.90
44377;DHT22;30093;0.000;0.000;2022-09-25T00:46:40;8.80;99.90
44377;DHT22;30093;0.000;0.000;2022-09-25T00:50:48;8.70;99.90
44377;DHT22;30093;0.000;0.000;2022-09-25T00:54:52;8.60;99.90
44377;DHT22;30093;0.000;0.000;2022-09-25T00:58:42;8.60;99.90
44377;DHT22;30093;0.000;0.000;2022-09-25T01:02:35;8.00;99.90
44377;DHT22;30093;0.000;0.000;2022-09-25T01:06:25;8.60;99.90
44377;DHT22;30093;0.000;0.000;2022-09-25T01:10:16;8.50;99.90
44377;DHT22;30093;0.000;0.000;2022-09-25T01:14:07;8.50;99.90
44377;DHT22;30093;0.000;0.000;2022-09-25T01:27:12;8.60;99.90
44377;DHT22;30093;0.000;0.000;2022-09-25T01:31:16;8.80;99.90
44377;DHT22;30093;0.000;0.000;2022-09-25T01:35:48;8.90;99.90
44377;DHT22;30093;0.000;0.000;2022-09-25T01:39:22;8.80;99.90
44377;DHT22;30093;0.000;0.000;2022-09-25T01:43:19;9.00;99.90
44377;DHT22;30093;0.000;0.000;2022-09-25T01:47:14;8.90;99.90
44377;DHT22;30093;0.000;0.000;2022-09-25T01:51:28;8.80;99.90
44377;DHT22;30093;0.000;0.000;2022-09-25T01:55:36;8.80;99.90
44377;DHT22;30093;0.000;0.000;2022-09-25T01:59:40;8.90;99.90
44377;DHT22;30093;0.000;0.000;2022-09-25T02:03:41;9.10;99.90
44377;DHT22;30093;0.000;0.000;2022-09-25T02:07:36;9.10;99.90
44377;DHT22;30093;0.000;0.000;2022-09-25T02:11:31;9.10;99.90
44377;DHT22;30093;0.000;0.000;2022-09-25T02:15:25;9.00;99.90
44377;DHT22;30093;0.000;0.000;2022-09-25T02:19:17;8.90;99.90
44377;DHT22;30093;0.000;0.000;2022-09-25T02:23:51;8.80;99.90
44377;DHT22;30093;0.000;0.000;2022-09-25T02:27:36;8.80;99.90
44377;DHT22;30093;0.000;0.000;2022-09-25T02:31:39;8.90;99.90
44377;DHT22;30093;0.000;0.000;2022-09-25T02:35:30;9.00;99.90
44377;DHT22;30093;0.000;0.000;2022-09-25T02:39:22;9.10;99.90
44377;DHT22;30093;0.000;0.000;2022-09-25T02:43:30;9.20;99.90
44377;DHT22;30093;0.000;0.000;2022-09-25T02:51:56;9.10;99.90
44377;DHT22;30093;0.000;0.000;2022-09-25T02:55:56;9.00;99.90
44377;DHT22;30093;0.000;0.000;2022-09-25T02:59:51;9.10;99.90
44377;DHT22;30093;0.000;0.000;2022-09-25T03:03:43;9.20;99.90
44377;DHT22;30093;0.000;0.000;2022-09-25T03:07:32;9.10;99.90
44377;DHT22;30093;0.000;0.000;2022-09-25T03:11:40;9.20;99.90
44377;DHT22;30093;0.000;0.000;2022-09-25T03:15:30;9.30;99.90
44377;DHT22;30093;0.000;0.000;2022-09-25T03:19:18;9.50;99.90
44377;DHT22;30093;0.000;0.000;2022-09-25T03:23:07;9.40;99.90
44377;DHT22;30093;0.000;0.000;2022-09-25T03:26:55;9.50;99.90
44377;DHT22;30093;0.000;0.000;2022-09-25T03:30:43;9.40;99.90
44377;DHT22;30093;0.000;0.000;2022-09-25T03:34:41;9.50;99.90
44377;DHT22;30093;0.000;0.000;2022-09-25T03:38:31;9.50;99.90
44377;DHT22;30093;0.000;0.000;2022-09-25T03:42:19;9.50;99.90
44377;DHT22;30093;0.000;0.000;2022-09-25T03:46:12;9.50;99.90
44377;DHT22;30093;0.000;0.000;2022-09-25T03:50:00;9.50;99.90
44377;DHT22;30093;0.000;0.000;2022-09-25T03:53:50;9.60;99.90
44377;DHT22;30093;0.000;0.000;2022-09-25T03:57:38;9.70;99.90
44377;DHT22;30093;0.000;0.000;2022-09-25T04:01:28;9.70;99.90
44377;DHT22;30093;0.000;0.000;2022-09-25T04:05:16;9.70;99.90
44377;DHT22;30093;0.000;0.000;2022-09-25T04:09:06;9.70;99.90
44377;DHT22;30093;0.000;0.000;2022-09-25T04:12:55;9.70;99.90
44377;DHT22;30093;0.000;0.000;2022-09-25T04:16:44;9.80;99.90
44377;DHT22;30093;0.000;0.000;2022-09-25T04:20:34;9.80;99.90
44377;DHT22;30093;0.000;0.000;2022-09-25T04:24:24;9.90;99.90
44377;DHT22;30093;0.000;0.000;2022-09-25T04:28:31;9.90;99.90
44377;DHT22;30093;0.000;0.000;2022-09-25T04:32:20;9.90;99.90
44377;DHT22;30093;0.000;0.000;2022-09-25T04:36:27;9.90;99.90
44377;DHT22;30093;0.000;0.000;2022-09-25T04:40:17;10.00;99.90
44377;DHT22;30093;0.000;0.000;2022-09-25T04:44:05;9.90;99.90
44377;DHT22;30093;0.000;0.000;2022-09-25T04:47:54;10.00;99.90
44377;DHT22;30093;0.000;0.000;2022-09-25T04:51:42;10.00;99.90
44377;DHT22;30093;0.000;0.000;2022-09-25T04:55:31;9.90;99.90
44377;DHT22;30093;0.000;0.000;2022-09-25T04:59:20;10.00;99.90
44377;DHT22;30093;0.000;0.000;2022-09-25T05:03:09;10.00;99.90
44377;DHT22;30093;0.000;0.000;2022-09-25T05:06:57;10.00;99.90
44377;DHT22;30093;0.000;0.000;2022-09-25T05:10:45;10.00;99.90
44377;DHT22;30093;0.000;0.000;2022-09-25T05:14:33;10.10;99.90
44377;DHT22;30093;0.000;0.000;2022-09-25T05:18:23;10.10;99.90
44377;DHT22;30093;0.000;0.000;2022-09-25T05:22:11;10.10;99.90
44377;DHT22;30093;0.000;0.000;2022-09-25T05:25:59;10.00;99.90
44377;DHT22;30093;0.000;0.000;2022-09-25T05:29:49;10.00;99.90
44377;DHT22;30093;0.000;0.000;2022-09-25T05:33:38;10.10;99.90
44377;DHT22;30093;0.000;0.000;2022-09-25T05:37:27;10.20;99.90
44377;DHT22;30093;0.000;0.000;2022-09-25T05:41:16;10.20;99.90
44377;DHT22;30093;0.000;0.000;2022-09-25T05:45:05;10.40;99.90
44377;DHT22;30093;0.000;0.000;2022-09-25T05:48:54;10.30;99.90
44377;DHT22;30093;0.000;0.000;2022-09-25T05:52:43;10.40;99.90
44377;DHT22;30093;0.000;0.000;2022-09-25T05:56:31;10.60;99.90
44377;DHT22;30093;0.000;0.000;2022-09-25T06:00:19;11.00;99.90
44377;DHT22;30093;0.000;0.000;2022-09-25T06:04:08;11.50;1.00
44377;DHT22;30093;0.000;0.000;2022-09-25T06:07:56;11.80;1.00
44377;DHT22;30093;0.000;0.000;2022-09-25T06:11:45;11.70;1.00
44377;DHT22;30093;0.000;0.000;2022-09-25T06:15:36;11.50;1.00
44377;DHT22;30093;0.000;0.000;2022-09-25T06:19:26;11.50;1.00
44377;DHT22;30093;0.000;0.000;2022-09-25T06:23:17;11.50;1.00
44377;DHT22;30093;0.000;0.000;2022-09-25T06:27:07;11.30;1.00
44377;DHT22;30093;0.000;0.000;2022-09-25T06:30:55;11.40;1.00
44377;DHT22;30093;0.000;0.000;2022-09-25T06:34:46;11.40;1.00
44377;DHT22;30093;0.000;0.000;2022-09-25T06:38:34;11.30;1.00
44377;DHT22;30093;0.000;0.000;2022-09-25T06:42:22;11.20;1.00
44377;DHT22;30093;0.000;0.000;2022-09-25T06:46:11;11.30;1.00
44377;DHT22;30093;0.000;0.000;2022-09-25T06:49:59;11.40;1.00
44377;DHT22;30093;0.000;0.000;2022-09-25T06:53:51;11.70;1.00
44377;DHT22;30093;0.000;0.000;2022-09-25T06:57:40;11.90;1.00
44377;DHT22;30093;0.000;0.000;2022-09-25T07:01:30;12.20;99.90
44377;DHT22;30093;0.000;0.000;2022-09-25T07:05:18;12.30;1.00
44377;DHT22;30093;0.000;0.000;2022-09-25T07:09:07;12.60;99.90
44377;DHT22;30093;0.000;0.000;2022-09-25T07:12:55;13.00;99.90
44377;DHT22;30093;0.000;0.000;2022-09-25T07:16:44;13.40;1.00
44377;DHT22;30093;0.000;0.000;2022-09-25T07:20:32;13.80;1.00
44377;DHT22;30093;0.000;0.000;2022-09-25T07:24:21;14.10;99.90
44377;DHT22;30093;0.000;0.000;2022-09-25T07:28:10;14.40;1.00
44377;DHT22;30093;0.000;0.000;2022-09-25T07:32:00;14.20;1.00
44377;DHT22;30093;0.000;0.000;2022-09-25T07:35:48;14.20;1.00
44377;DHT22;30093;0.000;0.000;2022-09-25T07:39:36;14.60;99.90
44377;DHT22;30093;0.000;0.000;2022-09-25T07:43:24;15.50;1.00
44377;DHT22;30093;0.000;0.000;2022-09-25T07:47:13;15.90;57.70
44377;DHT22;30093;0.000;0.000;2022-09-25T07:51:04;15.70;99.90
44377;DHT22;30093;0.000;0.000;2022-09-25T07:54:52;15.60;99.90
44377;DHT22;30093;0.000;0.000;2022-09-25T07:58:41;16.60;1.00
44377;DHT22;30093;0.000;0.000;2022-09-25T08:02:29;17.30;99.90
44377;DHT22;30093;0.000;0.000;2022-09-25T08:06:18;17.30;99.90
44377;DHT22;30093;0.000;0.000;2022-09-25T08:10:07;18.10;22.40
44377;DHT22;30093;0.000;0.000;2022-09-25T08:13:56;18.00;1.00
44377;DHT22;30093;0.000;0.000;2022-09-25T08:17:44;17.70;48.70
44377;DHT22;30093;0.000;0.000;2022-09-25T08:21:33;17.90;67.30
44377;DHT22;30093;0.000;0.000;2022-09-25T08:25:22;17.80;1.00
44377;DHT22;30093;0.000;0.000;2022-09-25T08:29:11;17.70;90.90
44377;DHT22;30093;0.000;0.000;2022-09-25T08:33:00;17.70;92.70
44377;DHT22;30093;0.000;0.000;2022-09-25T08:36:49;17.20;99.90
44377;DHT22;30093;0.000;0.000;2022-09-25T08:40:53;17.10;99.90
44377;DHT22;30093;0.000;0.000;2022-09-25T08:44:47;16.50;99.90
44377;DHT22;30093;0.000;0.000;2022-09-25T08:48:43;15.90;1.00
44377;DHT22;30093;0.000;0.000;2022-09-25T08:53:16;16.60;99.90
44377;DHT22;30093;0.000;0.000;2022-09-25T09:01:06;16.30;1.00
44377;DHT22;30093;0.000;0.000;2022-09-25T09:04:58;16.50;1.00
44377;DHT22;30093;0.000;0.000;2022-09-25T09:13:04;16.40;1.00
44377;DHT22;30093;0.000;0.000;2022-09-25T09:17:14;16.80;1.00
44377;DHT22;30093;0.000;0.000;2022-09-25T09:21:37;17.10;99.90
44377;DHT22;30093;0.000;0.000;2022-09-25T09:25:31;17.30;99.90
44377;DHT22;30093;0.000;0.000;2022-09-25T09:29:32;18.20;1.00
44377;DHT22;30093;0.000;0.000;2022-09-25T09:38:09;21.70;1.00
44377;DHT22;30093;0.000;0.000;2022-09-25T09:42:08;22.00;1.00
44377;DHT22;30093;0.000;0.000;2022-09-25T09:54:39;19.60;1.00
44377;DHT22;30093;0.000;0.000;2022-09-25T10:02:37;19.00;1.00
44377;DHT22;30093;0.000;0.000;2022-09-25T10:06:29;18.60;1.00
44377;DHT22;30093;0.000;0.000;2022-09-25T10:10:19;18.60;1.00
44377;DHT22;30093;0.000;0.000;2022-09-25T10:14:17;18.30;1.00
44377;DHT22;30093;0.000;0.000;2022-09-25T10:18:08;18.40;1.00
44377;DHT22;30093;0.000;0.000;2022-09-25T10:22:06;18.40;1.00
44377;DHT22;30093;0.000;0.000;2022-09-25T10:25:58;17.90;1.00
44377;DHT22;30093;0.000;0.000;2022-09-25T10:30:18;17.80;1.00
44377;DHT22;30093;0.000;0.000;2022-09-25T10:38:13;17.80;1.00
44377;DHT22;30093;0.000;0.000;2022-09-25T10:42:28;17.60;1.00
44377;DHT22;30093;0.000;0.000;2022-09-25T10:46:14;17.60;1.00
44377;DHT22;30093;0.000;0.000;2022-09-25T10:50:20;17.50;1.00
44377;DHT22;30093;0.000;0.000;2022-09-25T10:54:15;17.50;1.00
44377;DHT22;30093;0.000;0.000;2022-09-25T10:58:05;17.60;1.00
44377;DHT22;30093;0.000;0.000;2022-09-25T11:01:57;17.60;1.00
44377;DHT22;30093;0.000;0.000;2022-09-25T11:05:54;17.70;1.00
44377;DHT22;30093;0.000;0.000;2022-09-25T11:09:44;17.90;1.00
44377;DHT22;30093;0.000;0.000;2022-09-25T11:13:46;18.20;1.00
44377;DHT22;30093;0.000;0.000;2022-09-25T11:17:42;18.30;1.00
44377;DHT22;30093;0.000;0.000;2022-09-25T11:21:36;18.40;1.00
44377;DHT22;30093;0.000;0.000;2022-09-25T11:25:46;18.50;1.00
44377;DHT22;30093;0.000;0.000;2022-09-25T11:29:58;18.50;1.00
44377;DHT22;30093;0.000;0.000;2022-09-25T11:38:19;18.80;1.00
44377;DHT22;30093;0.000;0.000;2022-09-25T11:42:55;19.10;1.00
44377;DHT22;30093;0.000;0.000;2022-09-25T11:55:11;19.20;1.00
44377;DHT22;30093;0.000;0.000;2022-09-25T11:59:09;18.80;1.00
44377;DHT22;30093;0.000;0.000;2022-09-25T12:11:46;18.60;1.00
44377;DHT22;30093;0.000;0.000;2022-09-25T12:24:12;18.50;1.00
44377;DHT22;30093;0.000;0.000;2022-09-25T12:36:42;18.50;1.00
44377;DHT22;30093;0.000;0.000;2022-09-25T12:40:37;18.60;1.00
44377;DHT22;30093;0.000;0.000;2022-09-25T12:44:42;18.70;1.00
44377;DHT22;30093;0.000;0.000;2022-09-25T12:49:01;18.80;1.00
44377;DHT22;30093;0.000;0.000;2022-09-25T12:52:55;19.00;1.00
44377;DHT22;30093;0.000;0.000;2022-09-25T12:57:48;19.00;1.00
44377;DHT22;30093;0.000;0.000;2022-09-25T13:05:38;18.80;1.00
44377;DHT22;30093;0.000;0.000;2022-09-25T13:09:45;18.60;1.00
44377;DHT22;30093;0.000;0.000;2022-09-25T13:13:53;18.80;1.00
44377;DHT22;30093;0.000;0.000;2022-09-25T13:17:43;18.90;1.00
44377;DHT22;30093;0.000;0.000;2022-09-25T13:21:34;18.80;1.00
44377;DHT22;30093;0.000;0.000;2022-09-25T13:25:24;18.80;1.00
44377;DHT22;30093;0.000;0.000;2022-09-25T13:29:26;18.80;1.00
44377;DHT22;30093;0.000;0.000;2022-09-25T13:33:19;18.80;1.00
44377;DHT22;30093;0.000;0.000;2022-09-25T13:37:15;19.00;1.00
44377;DHT22;30093;0.000;0.000;2022-09-25T13:41:13;19.00;1.00
44377;DHT22;30093;0.000;0.000;2022-09-25T13:49:32;19.20;1.00
44377;DHT22;30093;0.000;0.000;2022-09-25T13:53:26;19.30;1.00
44377;DHT22;30093;0.000;0.000;2022-09-25T13:57:15;19.30;1.00
44377;DHT22;30093;0.000;0.000;2022-09-25T14:01:13;19.00;1.00
44377;DHT22;30093;0.000;0.000;2022-09-25T14:05:06;19.10;1.00
44377;DHT22;30093;0.000;0.000;2022-09-25T14:08:56;18.90;1.00
44377;DHT22;30093;0.000;0.000;2022-09-25T14:12:47;18.90;1.00
44377;DHT22;30093;0.000;0.000;2022-09-25T14:16:44;18.80;1.00
44377;DHT22;30093;0.000;0.000;2022-09-25T14:20:41;18.80;1.00
44377;DHT22;30093;0.000;0.000;2022-09-25T14:24:30;18.90;1.00
44377;DHT22;30093;0.000;0.000;2022-09-25T14:28:28;19.10;1.00
44377;DHT22;30093;0.000;0.000;2022-09-25T14:32:45;19.30;1.00
44377;DHT22;30093;0.000;0.000;2022-09-25T14:36:46;19.40;1.00
44377;DHT22;30093;0.000;0.000;2022-09-25T14:45:04;19.00;1.00
44377;DHT22;30093;0.000;0.000;2022-09-25T14:53:13;18.50;41.60
44377;DHT22;30093;0.000;0.000;2022-09-25T14:57:04;18.50;99.90
44377;DHT22;30093;0.000;0.000;2022-09-25T15:01:06;18.50;99.90
44377;DHT22;30093;0.000;0.000;2022-09-25T15:09:32;18.30;99.90
44377;DHT22;30093;0.000;0.000;2022-09-25T15:13:22;18.00;1.00
44377;DHT22;30093;0.000;0.000;2022-09-25T15:17:11;17.80;1.00
44377;DHT22;30093;0.000;0.000;2022-09-25T15:21:19;17.60;1.00
44377;DHT22;30093;0.000;0.000;2022-09-25T15:25:20;17.50;1.00
44377;DHT22;30093;0.000;0.000;2022-09-25T15:29:19;17.40;1.90
44377;DHT22;30093;0.000;0.000;2022-09-25T15:33:21;17.30;1.00
44377;DHT22;30093;0.000;0.000;2022-09-25T15:37:27;17.20;99.90
44377;DHT22;30093;0.000;0.000;2022-09-25T15:41:16;17.10;99.90
44377;DHT22;30093;0.000;0.000;2022-09-25T15:49:40;16.90;1.00
44377;DHT22;30093;0.000;0.000;2022-09-25T15:53:35;16.80;1.00
44377;DHT22;30093;0.000;0.000;2022-09-25T15:57:32;16.70;1.00
44377;DHT22;30093;0.000;0.000;2022-09-25T16:01:23;16.60;1.00
44377;DHT22;30093;0.000;0.000;2022-09-25T16:05:31;15.50;99.90
44377;DHT22;30093;0.000;0.000;2022-09-25T16:09:21;16.40;99.90
44377;DHT22;30093;0.000;0.000;2022-09-25T16:13:20;16.60;99.90
44377;DHT22;30093;0.000;0.000;2022-09-25T16:17:19;16.20;1.00
44377;DHT22;30093;0.000;0.000;2022-09-25T16:21:19;16.10;1.00
44377;DHT22;30093;0.000;0.000;2022-09-25T16:25:18;16.00;1.00
44377;DHT22;30093;0.000;0.000;2022-09-25T16:29:42;16.00;37.70
44377;DHT22;30093;0.000;0.000;2022-09-25T16:33:28;16.10;99.90
44377;DHT22;30093;0.000;0.000;2022-09-25T16:37:19;15.80;1.00
44377;DHT22;30093;0.000;0.000;2022-09-25T16:45:12;15.50;1.00
44377;DHT22;30093;0.000;0.000;2022-09-25T16:49:02;15.80;1.00
44377;DHT22;30093;0.000;0.000;2022-09-25T16:52:52;15.70;1.00
44377;DHT22;30093;0.000;0.000;2022-09-25T16:56:41;15.60;1.00
44377;DHT22;30093;0.000;0.000;2022-09-25T17:00:30;15.60;1.00
44377;DHT22;30093;0.000;0.000;2022-09-25T17:04:22;15.50;99.90
44377;DHT22;30093;0.000;0.000;2022-09-25T17:08:18;15.90;99.90
44377;DHT22;30093;0.000;0.000;2022-09-25T17:12:09;15.40;1.00
44377;DHT22;30093;0.000;0.000;2022-09-25T17:16:00;15.30;99.90
44377;DHT22;30093;0.000;0.000;2022-09-25T17:19:49;15.40;1.00
44377;DHT22;30093;0.000;0.000;2022-09-25T17:23:37;15.10;99.90
44377;DHT22;30093;0.000;0.000;2022-09-25T17:27:27;15.10;99.90
44377;DHT22;30093;0.000;0.000;2022-09-25T17:31:16;14.90;1.00
44377;DHT22;30093;0.000;0.000;2022-09-25T17:35:50;14.60;99.90
44377;DHT22;30093;0.000;0.000;2022-09-25T17:39:20;15.10;99.90
44377;DHT22;30093;0.000;0.000;2022-09-25T17:43:11;14.90;1.00
44377;DHT22;30093;0.000;0.000;2022-09-25T17:47:01;15.10;99.90
44377;DHT22;30093;0.000;0.000;2022-09-25T17:50:56;14.90;1.00
44377;DHT22;30093;0.000;0.000;2022-09-25T17:54:45;14.80;1.00
44377;DHT22;30093;0.000;0.000;2022-09-25T17:58:33;14.90;99.90
44377;DHT22;30093;0.000;0.000;2022-09-25T18:02:21;15.10;99.90
44377;DHT22;30093;0.000;0.000;2022-09-25T18:06:09;15.10;99.90
44377;DHT22;30093;0.000;0.000;2022-09-25T18:09:57;15.20;1.00
44377;DHT22;30093;0.000;0.000;2022-09-25T18:13:45;14.80;1.00
44377;DHT22;30093;0.000;0.000;2022-09-25T18:17:33;14.80;99.90
44377;DHT22;30093;0.000;0.000;2022-09-25T18:21:21;14.90;99.90
44377;DHT22;30093;0.000;0.000;2022-09-25T18:25:29;14.80;99.90
44377;DHT22;30093;0.000;0.000;2022-09-25T18:29:18;14.80;99.90
44377;DHT22;30093;0.000;0.000;2022-09-25T18:33:07;14.80;99.90
44377;DHT22;30093;0.000;0.000;2022-09-25T18:36:55;14.80;32.80
44377;DHT22;30093;0.000;0.000;2022-09-25T18:40:46;14.70;99.90
44377;DHT22;30093;0.000;0.000;2022-09-25T18:44:34;14.70;99.90
44377;DHT22;30093;0.000;0.000;2022-09-25T18:48:24;14.90;99.90
44377;DHT22;30093;0.000;0.000;2022-09-25T18:52:14;14.60;1.00
44377;DHT22;30093;0.000;0.000;2022-09-25T18:56:02;14.50;1.00
44377;DHT22;30093;0.000;0.000;2022-09-25T18:59:50;14.50;1.00
44377;DHT22;30093;0.000;0.000;2022-09-25T19:03:40;14.60;69.60
44377;DHT22;30093;0.000;0.000;2022-09-25T19:07:30;14.50;99.90
44377;DHT22;30093;0.000;0.000;2022-09-25T19:11:18;14.50;99.90
44377;DHT22;30093;0.000;0.000;2022-09-25T19:15:07;14.50;99.90
44377;DHT22;30093;0.000;0.000;2022-09-25T19:18:55;14.40;99.90
44377;DHT22;30093;0.000;0.000;2022-09-25T19:22:43;14.40;1.00
44377;DHT22;30093;0.000;0.000;2022-09-25T19:26:32;14.30;1.00
44377;DHT22;30093;0.000;0.000;2022-09-25T19:30:21;14.20;1.00
44377;DHT22;30093;0.000;0.000;2022-09-25T19:34:09;14.30;1.00
44377;DHT22;30093;0.000;0.000;2022-09-25T19:37:57;12.90;99.90
44377;DHT22;30093;0.000;0.000;2022-09-25T19:41:46;14.10;99.90
44377;DHT22;30093;0.000;0.000;2022-09-25T19:45:35;13.50;1.00
44377;DHT22;30093;0.000;0.000;2022-09-25T19:49:24;13.90;1.00
44377;DHT22;30093;0.000;0.000;2022-09-25T19:53:12;13.90;1.00
44377;DHT22;30093;0.000;0.000;2022-09-25T19:57:01;13.80;1.00
44377;DHT22;30093;0.000;0.000;2022-09-25T20:00:50;13.80;99.90
44377;DHT22;30093;0.000;0.000;2022-09-25T20:04:40;14.00;1.00
44377;DHT22;30093;0.000;0.000;2022-09-25T20:08:28;13.80;1.00
44377;DHT22;30093;0.000;0.000;2022-09-25T20:12:16;13.70;1.00
44377;DHT22;30093;0.000;0.000;2022-09-25T20:16:05;14.00;1.00
44377;DHT22;30093;0.000;0.000;2022-09-25T20:19:54;13.70;1.00
44377;DHT22;30093;0.000;0.000;2022-09-25T20:23:42;13.50;49.80
44377;DHT22;30093;0.000;0.000;2022-09-25T20:27:31;13.50;99.90
44377;DHT22;30093;0.000;0.000;2022-09-25T20:31:20;13.30;1.00
44377;DHT22;30093;0.000;0.000;2022-09-25T20:35:09;13.30;1.00
44377;DHT22;30093;0.000;0.000;2022-09-25T20:38:58;13.20;1.00
44377;DHT22;30093;0.000;0.000;2022-09-25T20:42:48;13.20;1.00
44377;DHT22;30093;0.000;0.000;2022-09-25T20:46:37;13.10;1.00
44377;DHT22;30093;0.000;0.000;2022-09-25T20:50:25;13.10;1.00
44377;DHT22;30093;0.000;0.000;2022-09-25T20:54:13;12.90;1.00
44377;DHT22;30093;0.000;0.000;2022-09-25T20:58:01;13.10;1.00
44377;DHT22;30093;0.000;0.000;2022-09-25T21:01:49;13.40;1.00
44377;DHT22;30093;0.000;0.000;2022-09-25T21:05:37;12.90;1.00
44377;DHT22;30093;0.000;0.000;2022-09-25T21:09:26;12.90;1.00
44377;DHT22;30093;0.000;0.000;2022-09-25T21:13:16;13.20;1.00
44377;DHT22;30093;0.000;0.000;2022-09-25T21:17:05;15.50;49.00
44377;DHT22;30093;0.000;0.000;2022-09-25T21:20:57;12.60;99.90
44377;DHT22;30093;0.000;0.000;2022-09-25T21:24:46;12.80;99.90
44377;DHT22;30093;0.000;0.000;2022-09-25T21:28:34;12.70;99.90
44377;DHT22;30093;0.000;0.000;2022-09-25T21:32:23;12.80;99.90
44377;DHT22;30093;0.000;0.000;2022-09-25T21:36:12;13.40;99.90
44377;DHT22;30093;0.000;0.000;2022-09-25T21:40:01;12.80;99.90
44377;DHT22;30093;0.000;0.000;2022-09-25T21:43:53;12.80;99.90
44377;DHT22;30093;0.000;0.000;2022-09-25T21:47:41;13.30;99.90
44377;DHT22;30093;0.000;0.000;2022-09-25T21:51:30;13.00;27.40
44377;DHT22;30093;0.000;0.000;2022-09-25T21:55:19;13.10;1.00
44377;DHT22;30093;0.000;0.000;2022-09-25T21:59:08;13.10;1.00
44377;DHT22;30093;0.000;0.000;2022-09-25T22:02:56;13.10;1.00
44377;DHT22;30093;0.000;0.000;2022-09-25T22:06:45;13.10;1.00
44377;DHT22;30093;0.000;0.000;2022-09-25T22:10:34;13.30;1.00
44377;DHT22;30093;0.000;0.000;2022-09-25T22:14:22;13.10;1.00
44377;DHT22;30093;0.000;0.000;2022-09-25T22:18:10;13.10;1.00
44377;DHT22;30093;0.000;0.000;2022-09-25T22:21:59;13.10;1.00
44377;DHT22;30093;0.000;0.000;2022-09-25T22:25:47;13.20;1.00
44377;DHT22;30093;0.000;0.000;2022-09-25T22:29:35;13.20;1.00
44377;DHT22;30093;0.000;0.000;2022-09-25T22:33:24;13.20;1.00
44377;DHT22;30093;0.000;0.000;2022-09-25T22:37:12;13.30;1.00
44377;DHT22;30093;0.000;0.000;2022-09-25T22:41:01;13.30;1.00
44377;DHT22;30093;0.000;0.000;2022-09-25T22:44:49;13.30;1.00
44377;DHT22;30093;0.000;0.000;2022-09-25T22:48:37;13.40;1.00
44377;DHT22;30093;0.000;0.000;2022-09-25T22:52:25;13.30;99.90
44377;DHT22;30093;0.000;0.000;2022-09-25T23:00:01;13.20;99.90
44377;DHT22;30093;0.000;0.000;2022-09-25T23:04:10;13.30;99.90
44377;DHT22;30093;0.000;0.000;2022-09-25T23:07:59;13.50;99.90
44377;DHT22;30093;0.000;0.000;2022-09-25T23:11:47;13.20;99.90
44377;DHT22;30093;0.000;0.000;2022-09-25T23:15:38;13.20;99.90
44377;DHT22;30093;0.000;0.000;2022-09-25T23:19:26;12.50;99.90
44377;DHT22;30093;0.000;0.000;2022-09-25T23:23:14;13.20;99.90
44377;DHT22;30093;0.000;0.000;2022-09-25T23:27:02;13.10;99.90
44377;DHT22;30093;0.000;0.000;2022-09-25T23:30:50;13.10;99.90
44377;DHT22;30093;0.000;0.000;2022-09-25T23:34:37;13.20;99.90
44377;DHT22;30093;0.000;0.000;2022-09-25T23:38:26;12.50;99.90
44377;DHT22;30093;0.000;0.000;2022-09-25T23:42:14;12.90;1.00
44377;DHT22;30093;0.000;0.000;2022-09-25T23:46:01;12.90;1.00
44377;DHT22;30093;0.000;0.000;2022-09-25T23:49:50;12.90;1.00
44377;DHT22;30093;0.000;0.000;2022-09-25T23:53:38;12.90;1.00
44377;DHT22;30093;0.000;0.000;2022-09-25T23:57:27;12.80;1.00
